sensor_id;sensor_type;location;lat;lon;timestamp;P1;durP1;ratioP1;P2;durP2;ratioP2
41446;SDS011;27185;52.040;4.490;2022-11-04T00:01:39;4.18;;;0.52;;
41446;SDS011;27185;52.040;4.490;2022-11-04T00:04:26;3.33;;;0.35;;
41446;SDS011;27185;52.040;4.490;2022-11-04T00:07:13;3.83;;;0.50;;
41446;SDS011;27185;52.040;4.490;2022-11-04T00:10:17;1.08;;;0.30;;
41446;SDS011;27185;52.040;4.490;2022-11-04T00:13:22;4.50;;;0.30;;
41446;SDS011;27185;52.040;4.490;2022-11-04T00:16:08;1.67;;;0.28;;
41446;SDS011;27185;52.040;4.490;2022-11-04T00:19:13;0.82;;;0.20;;
41446;SDS011;27185;52.040;4.490;2022-11-04T00:21:58;3.75;;;0.40;;
41446;SDS011;27185;52.040;4.490;2022-11-04T00:25:02;2.85;;;0.50;;
41446;SDS011;27185;52.040;4.490;2022-11-04T00:31:16;3.85;;;0.40;;
41446;SDS011;27185;52.040;4.490;2022-11-04T00:34:20;1.17;;;0.28;;
41446;SDS011;27185;52.040;4.490;2022-11-04T00:37:05;2.97;;;0.20;;
41446;SDS011;27185;52.040;4.490;2022-11-04T00:39:51;2.72;;;0.30;;
41446;SDS011;27185;52.040;4.490;2022-11-04T00:42:36;0.85;;;0.20;;
41446;SDS011;27185;52.040;4.490;2022-11-04T00:45:22;0.80;;;0.17;;
41446;SDS011;27185;52.040;4.490;2022-11-04T00:48:07;2.95;;;0.20;;
41446;SDS011;27185;52.040;4.490;2022-11-04T00:50:53;0.55;;;0.20;;
41446;SDS011;27185;52.040;4.490;2022-11-04T00:53:39;2.10;;;0.40;;
41446;SDS011;27185;52.040;4.490;2022-11-04T00:56:24;1.27;;;0.20;;
41446;SDS011;27185;52.040;4.490;2022-11-04T00:59:10;1.85;;;0.20;;
41446;SDS011;27185;52.040;4.490;2022-11-04T01:01:56;2.15;;;0.35;;
41446;SDS011;27185;52.040;4.490;2022-11-04T01:04:41;3.47;;;0.30;;
41446;SDS011;27185;52.040;4.490;2022-11-04T01:07:27;2.15;;;0.30;;
41446;SDS011;27185;52.040;4.490;2022-11-04T01:10:12;3.05;;;0.32;;
41446;SDS011;27185;52.040;4.490;2022-11-04T01:12:58;3.10;;;0.50;;
41446;SDS011;27185;52.040;4.490;2022-11-04T01:15:44;3.35;;;0.60;;
41446;SDS011;27185;52.040;4.490;2022-11-04T01:18:29;5.70;;;0.50;;
41446;SDS011;27185;52.040;4.490;2022-11-04T01:21:15;1.80;;;0.50;;
41446;SDS011;27185;52.040;4.490;2022-11-04T01:24:01;1.58;;;0.30;;
41446;SDS011;27185;52.040;4.490;2022-11-04T01:26:48;4.15;;;0.30;;
41446;SDS011;27185;52.040;4.490;2022-11-04T01:29:33;0.80;;;0.25;;
41446;SDS011;27185;52.040;4.490;2022-11-04T01:32:19;1.40;;;0.20;;
41446;SDS011;27185;52.040;4.490;2022-11-04T01:35:05;1.23;;;0.20;;
41446;SDS011;27185;52.040;4.490;2022-11-04T01:37:51;1.80;;;0.20;;
41446;SDS011;27185;52.040;4.490;2022-11-04T01:40:37;2.97;;;0.40;;
41446;SDS011;27185;52.040;4.490;2022-11-04T01:46:37;0.70;;;0.10;;
41446;SDS011;27185;52.040;4.490;2022-11-04T01:49:36;0.80;;;0.13;;
41446;SDS011;27185;52.040;4.490;2022-11-04T01:52:34;1.55;;;0.20;;
41446;SDS011;27185;52.040;4.490;2022-11-04T01:55:26;1.65;;;0.30;;
41446;SDS011;27185;52.040;4.490;2022-11-04T01:58:19;1.30;;;0.40;;
41446;SDS011;27185;52.040;4.490;2022-11-04T02:01:08;1.58;;;0.47;;
41446;SDS011;27185;52.040;4.490;2022-11-04T02:03:59;1.65;;;0.30;;
41446;SDS011;27185;52.040;4.490;2022-11-04T02:09:51;2.63;;;0.63;;
41446;SDS011;27185;52.040;4.490;2022-11-04T02:12:37;2.35;;;0.70;;
41446;SDS011;27185;52.040;4.490;2022-11-04T02:18:31;4.47;;;0.65;;
41446;SDS011;27185;52.040;4.490;2022-11-04T02:21:41;2.42;;;0.85;;
41446;SDS011;27185;52.040;4.490;2022-11-04T02:34:21;4.15;;;1.00;;
41446;SDS011;27185;52.040;4.490;2022-11-04T02:37:23;2.95;;;1.20;;
41446;SDS011;27185;52.040;4.490;2022-11-04T02:40:40;5.43;;;1.58;;
41446;SDS011;27185;52.040;4.490;2022-11-04T02:46:50;4.20;;;1.55;;
41446;SDS011;27185;52.040;4.490;2022-11-04T02:53:06;6.82;;;1.63;;
41446;SDS011;27185;52.040;4.490;2022-11-04T02:55:59;6.38;;;1.85;;
41446;SDS011;27185;52.040;4.490;2022-11-04T02:58:52;3.28;;;1.77;;
41446;SDS011;27185;52.040;4.490;2022-11-04T03:01:40;4.43;;;1.67;;
41446;SDS011;27185;52.040;4.490;2022-11-04T03:04:30;3.35;;;1.85;;
41446;SDS011;27185;52.040;4.490;2022-11-04T03:07:20;5.43;;;2.30;;
41446;SDS011;27185;52.040;4.490;2022-11-04T03:10:13;5.60;;;2.28;;
41446;SDS011;27185;52.040;4.490;2022-11-04T03:13:05;6.80;;;2.25;;
41446;SDS011;27185;52.040;4.490;2022-11-04T03:16:00;9.43;;;2.58;;
41446;SDS011;27185;52.040;4.490;2022-11-04T03:19:07;5.13;;;2.63;;
41446;SDS011;27185;52.040;4.490;2022-11-04T03:22:08;5.03;;;2.33;;
41446;SDS011;27185;52.040;4.490;2022-11-04T03:24:56;4.68;;;2.08;;
41446;SDS011;27185;52.040;4.490;2022-11-04T03:30:33;6.97;;;3.08;;
41446;SDS011;27185;52.040;4.490;2022-11-04T03:33:32;5.90;;;2.75;;
41446;SDS011;27185;52.040;4.490;2022-11-04T03:36:19;5.97;;;2.65;;
41446;SDS011;27185;52.040;4.490;2022-11-04T03:39:07;4.35;;;2.60;;
41446;SDS011;27185;52.040;4.490;2022-11-04T03:41:54;4.25;;;2.35;;
41446;SDS011;27185;52.040;4.490;2022-11-04T03:44:41;3.90;;;2.30;;
41446;SDS011;27185;52.040;4.490;2022-11-04T03:47:28;3.47;;;2.47;;
41446;SDS011;27185;52.040;4.490;2022-11-04T03:50:27;4.88;;;3.42;;
41446;SDS011;27185;52.040;4.490;2022-11-04T03:53:16;7.85;;;3.53;;
41446;SDS011;27185;52.040;4.490;2022-11-04T03:57:10;6.38;;;4.30;;
41446;SDS011;27185;52.040;4.490;2022-11-04T04:02:33;8.52;;;4.63;;
41446;SDS011;27185;52.040;4.490;2022-11-04T04:05:25;8.35;;;5.15;;
41446;SDS011;27185;52.040;4.490;2022-11-04T04:08:28;8.23;;;5.15;;
41446;SDS011;27185;52.040;4.490;2022-11-04T04:11:40;8.35;;;4.78;;
41446;SDS011;27185;52.040;4.490;2022-11-04T04:14:37;8.13;;;5.40;;
41446;SDS011;27185;52.040;4.490;2022-11-04T04:17:32;6.45;;;4.88;;
41446;SDS011;27185;52.040;4.490;2022-11-04T04:20:48;8.73;;;5.97;;
41446;SDS011;27185;52.040;4.490;2022-11-04T04:23:37;7.32;;;5.25;;
41446;SDS011;27185;52.040;4.490;2022-11-04T04:26:44;13.88;;;6.15;;
41446;SDS011;27185;52.040;4.490;2022-11-04T04:30:03;9.10;;;6.10;;
41446;SDS011;27185;52.040;4.490;2022-11-04T04:35:41;9.98;;;5.80;;
41446;SDS011;27185;52.040;4.490;2022-11-04T04:38:34;8.18;;;5.47;;
41446;SDS011;27185;52.040;4.490;2022-11-04T04:41:54;8.57;;;6.18;;
41446;SDS011;27185;52.040;4.490;2022-11-04T04:45:00;11.43;;;6.38;;
41446;SDS011;27185;52.040;4.490;2022-11-04T04:47:47;9.55;;;6.13;;
41446;SDS011;27185;52.040;4.490;2022-11-04T04:50:36;9.65;;;6.72;;
41446;SDS011;27185;52.040;4.490;2022-11-04T04:53:26;9.25;;;6.85;;
41446;SDS011;27185;52.040;4.490;2022-11-04T04:56:12;12.25;;;6.30;;
41446;SDS011;27185;52.040;4.490;2022-11-04T04:58:57;12.00;;;6.30;;
41446;SDS011;27185;52.040;4.490;2022-11-04T05:01:43;11.43;;;7.03;;
41446;SDS011;27185;52.040;4.490;2022-11-04T05:04:28;9.93;;;5.88;;
41446;SDS011;27185;52.040;4.490;2022-11-04T05:07:14;9.70;;;5.00;;
41446;SDS011;27185;52.040;4.490;2022-11-04T05:09:59;12.02;;;6.45;;
41446;SDS011;27185;52.040;4.490;2022-11-04T05:12:45;8.85;;;5.63;;
41446;SDS011;27185;52.040;4.490;2022-11-04T05:15:49;8.80;;;5.80;;
41446;SDS011;27185;52.040;4.490;2022-11-04T05:18:35;8.70;;;5.55;;
41446;SDS011;27185;52.040;4.490;2022-11-04T05:21:21;10.43;;;5.47;;
41446;SDS011;27185;52.040;4.490;2022-11-04T05:24:07;10.23;;;5.63;;
41446;SDS011;27185;52.040;4.490;2022-11-04T05:26:52;9.95;;;5.05;;
41446;SDS011;27185;52.040;4.490;2022-11-04T05:29:38;8.18;;;5.47;;
41446;SDS011;27185;52.040;4.490;2022-11-04T05:32:23;9.90;;;5.93;;
41446;SDS011;27185;52.040;4.490;2022-11-04T05:35:09;9.52;;;5.35;;
41446;SDS011;27185;52.040;4.490;2022-11-04T05:37:55;8.18;;;5.45;;
41446;SDS011;27185;52.040;4.490;2022-11-04T05:40:41;10.63;;;6.25;;
41446;SDS011;27185;52.040;4.490;2022-11-04T05:43:26;8.88;;;6.05;;
41446;SDS011;27185;52.040;4.490;2022-11-04T05:46:13;9.57;;;5.90;;
41446;SDS011;27185;52.040;4.490;2022-11-04T05:48:58;11.82;;;4.88;;
41446;SDS011;27185;52.040;4.490;2022-11-04T05:51:44;8.60;;;5.30;;
41446;SDS011;27185;52.040;4.490;2022-11-04T05:54:29;13.43;;;6.75;;
41446;SDS011;27185;52.040;4.490;2022-11-04T05:57:15;8.30;;;5.97;;
41446;SDS011;27185;52.040;4.490;2022-11-04T06:00:01;13.15;;;6.13;;
41446;SDS011;27185;52.040;4.490;2022-11-04T06:02:46;9.63;;;5.50;;
41446;SDS011;27185;52.040;4.490;2022-11-04T06:05:32;10.63;;;5.32;;
41446;SDS011;27185;52.040;4.490;2022-11-04T06:08:17;9.40;;;4.88;;
41446;SDS011;27185;52.040;4.490;2022-11-04T06:11:03;9.38;;;5.40;;
41446;SDS011;27185;52.040;4.490;2022-11-04T06:13:49;11.93;;;5.65;;
41446;SDS011;27185;52.040;4.490;2022-11-04T06:16:35;10.38;;;5.50;;
41446;SDS011;27185;52.040;4.490;2022-11-04T06:19:21;9.27;;;5.07;;
41446;SDS011;27185;52.040;4.490;2022-11-04T06:22:07;15.55;;;6.13;;
41446;SDS011;27185;52.040;4.490;2022-11-04T06:24:57;13.75;;;5.57;;
41446;SDS011;27185;52.040;4.490;2022-11-04T06:27:43;9.98;;;5.80;;
41446;SDS011;27185;52.040;4.490;2022-11-04T06:30:28;10.07;;;5.90;;
41446;SDS011;27185;52.040;4.490;2022-11-04T06:33:14;14.32;;;6.95;;
41446;SDS011;27185;52.040;4.490;2022-11-04T06:36:00;13.60;;;6.80;;
41446;SDS011;27185;52.040;4.490;2022-11-04T06:38:49;11.68;;;6.43;;
41446;SDS011;27185;52.040;4.490;2022-11-04T06:41:34;16.85;;;5.95;;
41446;SDS011;27185;52.040;4.490;2022-11-04T06:44:20;7.95;;;5.32;;
41446;SDS011;27185;52.040;4.490;2022-11-04T06:47:07;9.45;;;5.03;;
41446;SDS011;27185;52.040;4.490;2022-11-04T06:49:53;11.65;;;4.78;;
41446;SDS011;27185;52.040;4.490;2022-11-04T06:52:39;12.15;;;4.82;;
41446;SDS011;27185;52.040;4.490;2022-11-04T06:55:25;12.15;;;5.28;;
41446;SDS011;27185;52.040;4.490;2022-11-04T06:58:10;12.65;;;5.20;;
41446;SDS011;27185;52.040;4.490;2022-11-04T07:00:56;8.68;;;4.30;;
41446;SDS011;27185;52.040;4.490;2022-11-04T07:03:42;8.02;;;4.63;;
41446;SDS011;27185;52.040;4.490;2022-11-04T07:06:27;12.57;;;4.75;;
41446;SDS011;27185;52.040;4.490;2022-11-04T07:09:13;10.13;;;4.88;;
41446;SDS011;27185;52.040;4.490;2022-11-04T07:11:59;9.77;;;5.00;;
41446;SDS011;27185;52.040;4.490;2022-11-04T07:14:45;9.88;;;4.97;;
41446;SDS011;27185;52.040;4.490;2022-11-04T07:17:30;13.60;;;4.68;;
41446;SDS011;27185;52.040;4.490;2022-11-04T07:20:16;9.15;;;4.53;;
41446;SDS011;27185;52.040;4.490;2022-11-04T07:23:02;16.35;;;6.30;;
41446;SDS011;27185;52.040;4.490;2022-11-04T07:25:47;11.88;;;5.55;;
41446;SDS011;27185;52.040;4.490;2022-11-04T07:28:33;11.13;;;5.82;;
41446;SDS011;27185;52.040;4.490;2022-11-04T07:31:19;11.93;;;5.88;;
41446;SDS011;27185;52.040;4.490;2022-11-04T07:34:06;9.88;;;5.10;;
41446;SDS011;27185;52.040;4.490;2022-11-04T07:36:51;16.38;;;5.60;;
41446;SDS011;27185;52.040;4.490;2022-11-04T07:39:37;8.63;;;4.53;;
41446;SDS011;27185;52.040;4.490;2022-11-04T07:42:22;12.45;;;6.05;;
41446;SDS011;27185;52.040;4.490;2022-11-04T07:45:08;7.10;;;5.28;;
41446;SDS011;27185;52.040;4.490;2022-11-04T07:47:54;9.40;;;5.13;;
41446;SDS011;27185;52.040;4.490;2022-11-04T07:50:39;13.00;;;6.43;;
41446;SDS011;27185;52.040;4.490;2022-11-04T07:53:25;13.85;;;6.25;;
41446;SDS011;27185;52.040;4.490;2022-11-04T07:56:12;12.20;;;5.77;;
41446;SDS011;27185;52.040;4.490;2022-11-04T07:58:58;9.32;;;5.60;;
41446;SDS011;27185;52.040;4.490;2022-11-04T08:01:44;10.07;;;5.72;;
41446;SDS011;27185;52.040;4.490;2022-11-04T08:04:29;10.27;;;6.15;;
41446;SDS011;27185;52.040;4.490;2022-11-04T08:07:15;10.45;;;5.75;;
41446;SDS011;27185;52.040;4.490;2022-11-04T08:10:01;11.18;;;5.38;;
41446;SDS011;27185;52.040;4.490;2022-11-04T08:12:46;12.32;;;6.03;;
41446;SDS011;27185;52.040;4.490;2022-11-04T08:15:34;9.45;;;5.85;;
41446;SDS011;27185;52.040;4.490;2022-11-04T08:18:20;11.60;;;6.65;;
41446;SDS011;27185;52.040;4.490;2022-11-04T08:21:06;9.45;;;5.82;;
41446;SDS011;27185;52.040;4.490;2022-11-04T08:23:52;11.30;;;5.90;;
41446;SDS011;27185;52.040;4.490;2022-11-04T08:26:37;11.93;;;6.88;;
41446;SDS011;27185;52.040;4.490;2022-11-04T08:29:23;15.52;;;7.43;;
41446;SDS011;27185;52.040;4.490;2022-11-04T08:32:09;12.02;;;6.40;;
41446;SDS011;27185;52.040;4.490;2022-11-04T08:34:54;11.15;;;6.55;;
41446;SDS011;27185;52.040;4.490;2022-11-04T08:37:40;12.23;;;6.25;;
41446;SDS011;27185;52.040;4.490;2022-11-04T08:40:25;11.50;;;6.82;;
41446;SDS011;27185;52.040;4.490;2022-11-04T08:43:11;13.57;;;6.55;;
41446;SDS011;27185;52.040;4.490;2022-11-04T08:45:57;9.27;;;6.28;;
41446;SDS011;27185;52.040;4.490;2022-11-04T08:48:42;12.15;;;6.35;;
41446;SDS011;27185;52.040;4.490;2022-11-04T08:51:29;12.90;;;7.57;;
41446;SDS011;27185;52.040;4.490;2022-11-04T08:54:15;10.57;;;7.10;;
41446;SDS011;27185;52.040;4.490;2022-11-04T08:57:01;11.25;;;7.80;;
41446;SDS011;27185;52.040;4.490;2022-11-04T08:59:47;13.70;;;7.65;;
41446;SDS011;27185;52.040;4.490;2022-11-04T09:02:32;13.27;;;7.20;;
41446;SDS011;27185;52.040;4.490;2022-11-04T09:05:18;9.35;;;5.97;;
41446;SDS011;27185;52.040;4.490;2022-11-04T09:08:04;10.93;;;5.03;;
41446;SDS011;27185;52.040;4.490;2022-11-04T09:10:49;6.80;;;4.53;;
41446;SDS011;27185;52.040;4.490;2022-11-04T09:13:35;7.80;;;4.00;;
41446;SDS011;27185;52.040;4.490;2022-11-04T09:16:21;6.35;;;3.85;;
41446;SDS011;27185;52.040;4.490;2022-11-04T09:19:07;9.13;;;3.75;;
41446;SDS011;27185;52.040;4.490;2022-11-04T09:21:53;7.50;;;3.75;;
41446;SDS011;27185;52.040;4.490;2022-11-04T09:24:38;9.73;;;4.10;;
41446;SDS011;27185;52.040;4.490;2022-11-04T09:27:24;5.20;;;3.35;;
41446;SDS011;27185;52.040;4.490;2022-11-04T09:30:09;5.63;;;3.30;;
41446;SDS011;27185;52.040;4.490;2022-11-04T09:32:56;5.72;;;3.60;;
41446;SDS011;27185;52.040;4.490;2022-11-04T09:35:42;6.03;;;3.20;;
41446;SDS011;27185;52.040;4.490;2022-11-04T09:38:27;7.20;;;3.00;;
41446;SDS011;27185;52.040;4.490;2022-11-04T09:44:38;4.55;;;2.25;;
41446;SDS011;27185;52.040;4.490;2022-11-04T09:47:42;7.60;;;1.77;;
41446;SDS011;27185;52.040;4.490;2022-11-04T09:50:32;3.00;;;1.70;;
41446;SDS011;27185;52.040;4.490;2022-11-04T09:56:34;6.93;;;1.20;;
41446;SDS011;27185;52.040;4.490;2022-11-04T09:59:24;4.45;;;1.38;;
41446;SDS011;27185;52.040;4.490;2022-11-04T10:05:20;3.33;;;1.77;;
41446;SDS011;27185;52.040;4.490;2022-11-04T10:08:29;4.28;;;1.30;;
41446;SDS011;27185;52.040;4.490;2022-11-04T10:11:39;4.25;;;1.95;;
41446;SDS011;27185;52.040;4.490;2022-11-04T10:17:52;3.80;;;2.15;;
41446;SDS011;27185;52.040;4.490;2022-11-04T10:21:03;4.82;;;2.13;;
41446;SDS011;27185;52.040;4.490;2022-11-04T10:30:03;8.43;;;4.68;;
41446;SDS011;27185;52.040;4.490;2022-11-04T10:33:18;11.52;;;5.25;;
41446;SDS011;27185;52.040;4.490;2022-11-04T10:36:15;9.63;;;5.70;;
41446;SDS011;27185;52.040;4.490;2022-11-04T10:39:02;8.57;;;5.60;;
41446;SDS011;27185;52.040;4.490;2022-11-04T10:41:57;8.25;;;5.22;;
41446;SDS011;27185;52.040;4.490;2022-11-04T10:44:43;7.00;;;4.75;;
41446;SDS011;27185;52.040;4.490;2022-11-04T10:47:34;6.60;;;4.40;;
41446;SDS011;27185;52.040;4.490;2022-11-04T10:50:28;7.15;;;3.88;;
41446;SDS011;27185;52.040;4.490;2022-11-04T10:53:22;6.50;;;4.45;;
41446;SDS011;27185;52.040;4.490;2022-11-04T10:56:19;6.32;;;4.15;;
41446;SDS011;27185;52.040;4.490;2022-11-04T10:59:43;6.35;;;4.53;;
41446;SDS011;27185;52.040;4.490;2022-11-04T11:05:22;5.85;;;3.15;;
41446;SDS011;27185;52.040;4.490;2022-11-04T11:08:13;6.28;;;2.85;;
41446;SDS011;27185;52.040;4.490;2022-11-04T11:11:11;10.10;;;2.75;;
41446;SDS011;27185;52.040;4.490;2022-11-04T11:13:59;3.90;;;0.82;;
41446;SDS011;27185;52.040;4.490;2022-11-04T11:16:44;6.35;;;0.50;;
41446;SDS011;27185;52.040;4.490;2022-11-04T11:19:32;1.35;;;0.40;;
41446;SDS011;27185;52.040;4.490;2022-11-04T11:22:39;2.23;;;0.40;;
41446;SDS011;27185;52.040;4.490;2022-11-04T11:28:20;2.92;;;0.50;;
41446;SDS011;27185;52.040;4.490;2022-11-04T11:31:10;1.73;;;0.30;;
41446;SDS011;27185;52.040;4.490;2022-11-04T11:34:03;3.45;;;0.30;;
41446;SDS011;27185;52.040;4.490;2022-11-04T11:36:51;2.65;;;0.30;;
41446;SDS011;27185;52.040;4.490;2022-11-04T11:39:39;2.00;;;0.30;;
41446;SDS011;27185;52.040;4.490;2022-11-04T11:45:15;6.50;;;0.52;;
41446;SDS011;27185;52.040;4.490;2022-11-04T11:48:01;2.95;;;0.45;;
41446;SDS011;27185;52.040;4.490;2022-11-04T11:50:54;1.05;;;0.40;;
41446;SDS011;27185;52.040;4.490;2022-11-04T11:53:57;5.72;;;0.45;;
41446;SDS011;27185;52.040;4.490;2022-11-04T12:00:15;2.00;;;0.40;;
41446;SDS011;27185;52.040;4.490;2022-11-04T12:03:11;1.30;;;0.20;;
41446;SDS011;27185;52.040;4.490;2022-11-04T12:12:38;1.85;;;0.35;;
41446;SDS011;27185;52.040;4.490;2022-11-04T12:21:53;1.08;;;0.20;;
41446;SDS011;27185;52.040;4.490;2022-11-04T12:24:52;1.50;;;0.25;;
41446;SDS011;27185;52.040;4.490;2022-11-04T12:28:02;2.63;;;0.30;;
41446;SDS011;27185;52.040;4.490;2022-11-04T12:37:29;1.38;;;0.10;;
41446;SDS011;27185;52.040;4.490;2022-11-04T12:40:43;1.10;;;0.20;;
41446;SDS011;27185;52.040;4.490;2022-11-04T12:44:20;1.70;;;0.20;;
41446;SDS011;27185;52.040;4.490;2022-11-04T12:50:20;2.90;;;0.22;;
41446;SDS011;27185;52.040;4.490;2022-11-04T12:56:37;4.68;;;0.40;;
41446;SDS011;27185;52.040;4.490;2022-11-04T12:59:40;0.85;;;0.22;;
41446;SDS011;27185;52.040;4.490;2022-11-04T13:02:42;0.93;;;0.20;;
41446;SDS011;27185;52.040;4.490;2022-11-04T13:08:32;1.70;;;0.20;;
41446;SDS011;27185;52.040;4.490;2022-11-04T13:11:42;1.38;;;0.30;;
41446;SDS011;27185;52.040;4.490;2022-11-04T13:14:45;1.67;;;0.17;;
41446;SDS011;27185;52.040;4.490;2022-11-04T13:17:36;2.13;;;0.40;;
41446;SDS011;27185;52.040;4.490;2022-11-04T13:20:40;4.00;;;0.32;;
41446;SDS011;27185;52.040;4.490;2022-11-04T13:26:22;2.15;;;0.30;;
41446;SDS011;27185;52.040;4.490;2022-11-04T13:29:12;0.93;;;0.30;;
41446;SDS011;27185;52.040;4.490;2022-11-04T13:32:04;2.78;;;0.40;;
41446;SDS011;27185;52.040;4.490;2022-11-04T13:35:02;1.33;;;0.50;;
41446;SDS011;27185;52.040;4.490;2022-11-04T13:38:08;2.13;;;0.20;;
41446;SDS011;27185;52.040;4.490;2022-11-04T13:43:58;1.13;;;0.30;;
41446;SDS011;27185;52.040;4.490;2022-11-04T13:46:47;2.35;;;0.30;;
41446;SDS011;27185;52.040;4.490;2022-11-04T13:49:36;2.22;;;0.25;;
41446;SDS011;27185;52.040;4.490;2022-11-04T13:52:31;1.73;;;0.30;;
41446;SDS011;27185;52.040;4.490;2022-11-04T13:55:20;2.30;;;0.30;;
41446;SDS011;27185;52.040;4.490;2022-11-04T13:58:05;0.68;;;0.20;;
41446;SDS011;27185;52.040;4.490;2022-11-04T14:04:31;0.95;;;0.20;;
41446;SDS011;27185;52.040;4.490;2022-11-04T14:07:13;3.28;;;0.40;;
41446;SDS011;27185;52.040;4.490;2022-11-04T14:10:02;2.25;;;0.40;;
41446;SDS011;27185;52.040;4.490;2022-11-04T14:12:47;4.72;;;0.38;;
41446;SDS011;27185;52.040;4.490;2022-11-04T14:22:53;1.33;;;0.20;;
41446;SDS011;27185;52.040;4.490;2022-11-04T14:25:39;1.88;;;0.30;;
41446;SDS011;27185;52.040;4.490;2022-11-04T14:28:28;3.90;;;0.30;;
41446;SDS011;27185;52.040;4.490;2022-11-04T14:31:37;3.13;;;0.32;;
41446;SDS011;27185;52.040;4.490;2022-11-04T14:34:33;1.52;;;0.40;;
41446;SDS011;27185;52.040;4.490;2022-11-04T14:37:22;1.77;;;0.30;;
41446;SDS011;27185;52.040;4.490;2022-11-04T14:40:21;4.47;;;0.50;;
41446;SDS011;27185;52.040;4.490;2022-11-04T14:43:52;3.00;;;0.40;;
41446;SDS011;27185;52.040;4.490;2022-11-04T14:46:30;2.03;;;0.40;;
41446;SDS011;27185;52.040;4.490;2022-11-04T14:49:38;2.92;;;0.40;;
41446;SDS011;27185;52.040;4.490;2022-11-04T14:55:27;3.15;;;0.50;;
41446;SDS011;27185;52.040;4.490;2022-11-04T14:58:24;1.48;;;0.32;;
41446;SDS011;27185;52.040;4.490;2022-11-04T15:01:12;3.00;;;0.38;;
41446;SDS011;27185;52.040;4.490;2022-11-04T15:04:13;0.70;;;0.25;;
41446;SDS011;27185;52.040;4.490;2022-11-04T15:07:02;5.03;;;0.40;;
41446;SDS011;27185;52.040;4.490;2022-11-04T15:09:48;2.42;;;0.45;;
41446;SDS011;27185;52.040;4.490;2022-11-04T15:12:34;1.52;;;0.40;;
41446;SDS011;27185;52.040;4.490;2022-11-04T15:15:38;2.35;;;0.40;;
41446;SDS011;27185;52.040;4.490;2022-11-04T15:18:28;2.03;;;0.40;;
41446;SDS011;27185;52.040;4.490;2022-11-04T15:21:14;4.78;;;0.85;;
41446;SDS011;27185;52.040;4.490;2022-11-04T15:24:00;3.78;;;0.60;;
41446;SDS011;27185;52.040;4.490;2022-11-04T15:26:50;3.53;;;0.45;;
41446;SDS011;27185;52.040;4.490;2022-11-04T15:29:37;2.83;;;0.70;;
41446;SDS011;27185;52.040;4.490;2022-11-04T15:32:23;1.92;;;0.88;;
41446;SDS011;27185;52.040;4.490;2022-11-04T15:35:10;1.73;;;0.50;;
41446;SDS011;27185;52.040;4.490;2022-11-04T15:37:57;3.78;;;0.47;;
41446;SDS011;27185;52.040;4.490;2022-11-04T15:40:45;4.28;;;0.60;;
41446;SDS011;27185;52.040;4.490;2022-11-04T15:43:31;4.13;;;0.77;;
41446;SDS011;27185;52.040;4.490;2022-11-04T15:46:17;3.78;;;0.90;;
41446;SDS011;27185;52.040;4.490;2022-11-04T15:49:04;4.53;;;0.80;;
41446;SDS011;27185;52.040;4.490;2022-11-04T15:51:51;4.97;;;1.30;;
41446;SDS011;27185;52.040;4.490;2022-11-04T15:54:40;4.90;;;1.05;;
41446;SDS011;27185;52.040;4.490;2022-11-04T15:57:32;4.10;;;1.13;;
41446;SDS011;27185;52.040;4.490;2022-11-04T16:00:22;3.35;;;0.75;;
41446;SDS011;27185;52.040;4.490;2022-11-04T16:03:16;5.88;;;0.82;;
41446;SDS011;27185;52.040;4.490;2022-11-04T16:06:04;5.25;;;1.30;;
41446;SDS011;27185;52.040;4.490;2022-11-04T16:09:01;5.63;;;1.17;;
41446;SDS011;27185;52.040;4.490;2022-11-04T16:18:21;8.18;;;1.15;;
41446;SDS011;27185;52.040;4.490;2022-11-04T16:21:30;4.53;;;0.95;;
41446;SDS011;27185;52.040;4.490;2022-11-04T16:24:22;6.22;;;0.60;;
41446;SDS011;27185;52.040;4.490;2022-11-04T16:27:12;4.28;;;0.80;;
41446;SDS011;27185;52.040;4.490;2022-11-04T16:30:07;6.32;;;1.30;;
41446;SDS011;27185;52.040;4.490;2022-11-04T16:33:08;2.97;;;0.80;;
41446;SDS011;27185;52.040;4.490;2022-11-04T16:36:04;3.72;;;1.40;;
41446;SDS011;27185;52.040;4.490;2022-11-04T16:41:47;4.43;;;0.80;;
41446;SDS011;27185;52.040;4.490;2022-11-04T16:44:33;3.75;;;1.48;;
41446;SDS011;27185;52.040;4.490;2022-11-04T16:47:18;2.42;;;0.80;;
41446;SDS011;27185;52.040;4.490;2022-11-04T16:50:05;6.32;;;1.40;;
41446;SDS011;27185;52.040;4.490;2022-11-04T16:52:57;5.32;;;1.88;;
41446;SDS011;27185;52.040;4.490;2022-11-04T16:55:43;8.07;;;4.15;;
41446;SDS011;27185;52.040;4.490;2022-11-04T16:58:30;12.05;;;4.88;;
41446;SDS011;27185;52.040;4.490;2022-11-04T17:01:15;11.43;;;5.80;;
41446;SDS011;27185;52.040;4.490;2022-11-04T17:04:02;9.60;;;4.43;;
41446;SDS011;27185;52.040;4.490;2022-11-04T17:06:50;9.90;;;3.85;;
41446;SDS011;27185;52.040;4.490;2022-11-04T17:09:36;10.38;;;3.72;;
41446;SDS011;27185;52.040;4.490;2022-11-04T17:12:21;8.60;;;3.70;;
41446;SDS011;27185;52.040;4.490;2022-11-04T17:15:07;7.78;;;3.25;;
41446;SDS011;27185;52.040;4.490;2022-11-04T17:17:53;10.05;;;2.95;;
41446;SDS011;27185;52.040;4.490;2022-11-04T17:20:39;7.53;;;2.65;;
41446;SDS011;27185;52.040;4.490;2022-11-04T17:23:27;5.15;;;1.85;;
41446;SDS011;27185;52.040;4.490;2022-11-04T17:26:13;6.72;;;2.03;;
41446;SDS011;27185;52.040;4.490;2022-11-04T17:28:59;5.85;;;1.55;;
41446;SDS011;27185;52.040;4.490;2022-11-04T17:31:45;6.05;;;2.17;;
41446;SDS011;27185;52.040;4.490;2022-11-04T17:34:30;7.72;;;2.70;;
41446;SDS011;27185;52.040;4.490;2022-11-04T17:37:16;5.88;;;2.30;;
41446;SDS011;27185;52.040;4.490;2022-11-04T17:40:02;5.38;;;1.77;;
41446;SDS011;27185;52.040;4.490;2022-11-04T17:42:52;4.95;;;2.03;;
41446;SDS011;27185;52.040;4.490;2022-11-04T17:45:56;5.78;;;3.22;;
41446;SDS011;27185;52.040;4.490;2022-11-04T17:49:18;9.43;;;3.45;;
41446;SDS011;27185;52.040;4.490;2022-11-04T17:52:08;11.35;;;4.80;;
41446;SDS011;27185;52.040;4.490;2022-11-04T17:54:54;11.27;;;4.32;;
41446;SDS011;27185;52.040;4.490;2022-11-04T17:57:40;8.50;;;3.05;;
41446;SDS011;27185;52.040;4.490;2022-11-04T18:00:25;6.50;;;2.33;;
41446;SDS011;27185;52.040;4.490;2022-11-04T18:03:13;5.13;;;1.67;;
41446;SDS011;27185;52.040;4.490;2022-11-04T18:05:59;6.25;;;1.95;;
41446;SDS011;27185;52.040;4.490;2022-11-04T18:08:45;5.88;;;1.30;;
41446;SDS011;27185;52.040;4.490;2022-11-04T18:11:31;2.88;;;1.10;;
41446;SDS011;27185;52.040;4.490;2022-11-04T18:14:35;3.15;;;1.02;;
41446;SDS011;27185;52.040;4.490;2022-11-04T18:17:20;3.42;;;1.08;;
41446;SDS011;27185;52.040;4.490;2022-11-04T18:20:09;3.95;;;1.10;;
41446;SDS011;27185;52.040;4.490;2022-11-04T18:22:58;6.65;;;1.42;;
41446;SDS011;27185;52.040;4.490;2022-11-04T18:25:52;6.03;;;1.70;;
41446;SDS011;27185;52.040;4.490;2022-11-04T18:28:41;5.55;;;1.45;;
41446;SDS011;27185;52.040;4.490;2022-11-04T18:31:28;5.70;;;2.65;;
41446;SDS011;27185;52.040;4.490;2022-11-04T18:34:18;4.30;;;1.92;;
41446;SDS011;27185;52.040;4.490;2022-11-04T18:37:04;9.98;;;2.42;;
41446;SDS011;27185;52.040;4.490;2022-11-04T18:39:50;7.07;;;2.92;;
41446;SDS011;27185;52.040;4.490;2022-11-04T18:42:36;6.13;;;2.00;;
41446;SDS011;27185;52.040;4.490;2022-11-04T18:45:22;6.00;;;2.25;;
41446;SDS011;27185;52.040;4.490;2022-11-04T18:48:08;5.80;;;2.25;;
41446;SDS011;27185;52.040;4.490;2022-11-04T18:50:54;7.63;;;2.47;;
41446;SDS011;27185;52.040;4.490;2022-11-04T18:53:44;5.15;;;2.63;;
41446;SDS011;27185;52.040;4.490;2022-11-04T18:56:29;7.90;;;3.22;;
41446;SDS011;27185;52.040;4.490;2022-11-04T18:59:16;7.68;;;3.15;;
41446;SDS011;27185;52.040;4.490;2022-11-04T19:02:02;7.30;;;3.15;;
41446;SDS011;27185;52.040;4.490;2022-11-04T19:04:48;8.52;;;3.83;;
41446;SDS011;27185;52.040;4.490;2022-11-04T19:07:35;6.63;;;3.25;;
41446;SDS011;27185;52.040;4.490;2022-11-04T19:10:20;11.23;;;3.72;;
41446;SDS011;27185;52.040;4.490;2022-11-04T19:13:07;6.10;;;3.55;;